createdAt,value
2018-03-14T00:02:01.601Z,6.10
2018-03-14T00:04:29.128Z,6.10
2018-03-14T00:06:56.612Z,6.10
2018-03-14T00:09:24.114Z,6.10
2018-03-14T00:11:51.587Z,6.10
2018-03-14T00:14:19.150Z,6.10
2018-03-14T00:16:46.727Z,6.10
2018-03-14T00:19:14.300Z,6.00
2018-03-14T00:21:41.775Z,6.00
2018-03-14T00:24:09.551Z,6.00
2018-03-14T00:26:38.531Z,6.00
2018-03-14T00:29:05.999Z,6.00
2018-03-14T00:31:33.475Z,6.00
2018-03-14T00:34:00.982Z,6.10
2018-03-14T00:36:28.539Z,6.10
2018-03-14T00:38:55.999Z,6.10
2018-03-14T00:41:23.488Z,6.10
2018-03-14T00:43:50.946Z,6.10
2018-03-14T00:46:18.408Z,6.10
2018-03-14T00:48:45.879Z,6.10
2018-03-14T00:51:13.343Z,6.10
2018-03-14T00:53:40.934Z,6.10
2018-03-14T00:56:08.394Z,6.10
2018-03-14T00:58:35.870Z,6.20
2018-03-14T01:01:03.328Z,6.20
2018-03-14T01:03:30.804Z,6.20
2018-03-14T01:05:58.432Z,6.10
2018-03-14T01:08:25.931Z,6.10
2018-03-14T01:10:53.390Z,6.10
2018-03-14T01:13:20.869Z,6.10
2018-03-14T01:15:48.360Z,6.20
2018-03-14T01:18:15.830Z,6.20
2018-03-14T01:20:43.290Z,6.20
2018-03-14T01:23:10.776Z,6.30
2018-03-14T01:25:38.243Z,6.30
2018-03-14T01:28:05.708Z,6.30
2018-03-14T01:30:33.234Z,6.20
2018-03-14T01:33:00.711Z,6.20
2018-03-14T01:35:28.218Z,6.20
2018-03-14T01:37:55.686Z,6.20
2018-03-14T01:40:23.259Z,6.20
2018-03-14T01:42:50.719Z,6.20
2018-03-14T01:45:18.205Z,6.20
2018-03-14T01:47:45.771Z,6.20
2018-03-14T01:50:13.339Z,6.20
2018-03-14T01:52:40.835Z,6.10
2018-03-14T01:55:08.327Z,6.10
2018-03-14T01:57:36.558Z,6.10
2018-03-14T02:00:04.032Z,6.10
2018-03-14T02:02:31.498Z,6.10
2018-03-14T02:04:58.985Z,6.10
2018-03-14T02:07:26.448Z,6.10
2018-03-14T02:09:53.911Z,6.10
2018-03-14T02:12:21.387Z,6.10
2018-03-14T02:14:48.851Z,6.10
2018-03-14T02:17:16.326Z,6.10
2018-03-14T02:19:43.786Z,6.10
2018-03-14T02:22:11.263Z,6.10
2018-03-14T02:24:38.723Z,6.10
2018-03-14T02:27:06.196Z,6.10
2018-03-14T02:29:33.683Z,6.10
2018-03-14T02:32:01.251Z,6.10
2018-03-14T02:34:28.727Z,6.10
2018-03-14T02:37:02.140Z,6.10
2018-03-14T02:39:29.606Z,6.10
2018-03-14T02:41:57.084Z,6.10
2018-03-14T02:44:24.543Z,6.20
2018-03-14T02:46:52.026Z,6.20
2018-03-14T02:49:19.583Z,6.20
2018-03-14T02:51:47.056Z,6.20
2018-03-14T02:54:14.523Z,6.20
2018-03-14T02:56:41.972Z,6.20
2018-03-14T02:59:09.441Z,6.10
2018-03-14T03:01:36.935Z,6.10
2018-03-14T03:04:04.403Z,6.00
2018-03-14T03:06:31.882Z,6.00
2018-03-14T03:08:59.456Z,6.10
2018-03-14T03:11:26.911Z,6.00
2018-03-14T03:13:54.384Z,6.00
2018-03-14T03:16:21.841Z,6.10
2018-03-14T03:18:49.307Z,6.00
2018-03-14T03:21:16.795Z,5.90
2018-03-14T03:23:44.265Z,5.90
2018-03-14T03:26:11.719Z,5.90
2018-03-14T03:28:39.187Z,5.90
2018-03-14T03:31:06.653Z,5.90
2018-03-14T03:33:34.151Z,5.90
2018-03-14T03:36:01.626Z,5.90
2018-03-14T03:38:29.074Z,5.90
2018-03-14T03:40:56.547Z,5.90
2018-03-14T03:43:24.007Z,6.00
2018-03-14T03:45:51.479Z,6.00
2018-03-14T03:48:18.939Z,6.00
2018-03-14T03:50:46.429Z,6.00
2018-03-14T03:53:13.882Z,6.00
2018-03-14T03:55:41.371Z,5.90
2018-03-14T03:58:08.844Z,5.90
2018-03-14T04:00:36.425Z,5.90
2018-03-14T04:03:03.878Z,5.80
2018-03-14T04:05:31.350Z,5.80
2018-03-14T04:07:58.822Z,5.80
2018-03-14T04:10:26.391Z,5.90
2018-03-14T04:12:53.860Z,5.90
2018-03-14T04:15:21.339Z,5.90
2018-03-14T04:17:48.910Z,6.00
2018-03-14T04:20:16.367Z,6.00
2018-03-14T04:22:43.859Z,6.10
2018-03-14T04:25:11.307Z,6.10
2018-03-14T04:27:38.775Z,6.10
2018-03-14T04:30:06.232Z,6.10
2018-03-14T04:32:33.735Z,6.10
2018-03-14T04:35:01.195Z,6.10
2018-03-14T04:37:28.671Z,6.10
2018-03-14T04:39:56.123Z,6.20
2018-03-14T04:42:23.594Z,6.20
2018-03-14T04:44:51.052Z,6.20
2018-03-14T04:47:18.527Z,6.30
2018-03-14T04:49:45.988Z,6.40
2018-03-14T04:52:13.448Z,6.40
2018-03-14T04:54:40.911Z,6.40
2018-03-14T04:57:08.372Z,6.40
2018-03-14T04:59:35.844Z,6.40
2018-03-14T05:02:03.307Z,6.30
2018-03-14T05:04:31.519Z,6.40
2018-03-14T05:06:58.992Z,6.30
2018-03-14T05:09:26.491Z,6.40
2018-03-14T05:11:54.058Z,6.30
2018-03-14T05:14:21.515Z,6.30
2018-03-14T05:16:49.006Z,6.30
2018-03-14T05:19:16.584Z,6.30
2018-03-14T05:21:44.064Z,6.30
2018-03-14T05:24:11.621Z,6.30
2018-03-14T05:26:39.074Z,6.30
2018-03-14T05:29:06.543Z,6.30
2018-03-14T05:31:34.000Z,6.30
2018-03-14T05:34:01.560Z,6.30
2018-03-14T05:36:29.381Z,6.20
2018-03-14T05:38:56.838Z,6.30
2018-03-14T05:41:24.477Z,6.30
2018-03-14T05:43:51.991Z,6.40
2018-03-14T05:46:19.459Z,6.40
2018-03-14T05:48:46.927Z,6.60
2018-03-14T05:52:53.322Z,6.50
2018-03-14T05:55:20.798Z,6.60
2018-03-14T05:57:48.257Z,6.50
2018-03-14T06:00:15.715Z,6.40
2018-03-14T06:02:43.211Z,6.40
2018-03-14T06:05:10.668Z,6.30
2018-03-14T06:07:38.159Z,6.30
2018-03-14T06:10:05.611Z,6.20
2018-03-14T06:12:33.070Z,6.20
2018-03-14T06:15:00.546Z,6.20
2018-03-14T06:17:28.032Z,6.20
2018-03-14T06:19:55.507Z,6.20
2018-03-14T06:22:22.967Z,6.20
2018-03-14T06:24:50.454Z,6.20
2018-03-14T06:27:18.007Z,6.20
2018-03-14T06:29:45.473Z,6.20
2018-03-14T06:32:13.063Z,6.10
2018-03-14T06:34:40.531Z,6.10
2018-03-14T06:37:08.183Z,6.00
2018-03-14T06:39:35.619Z,5.90
2018-03-14T06:42:03.134Z,5.80
2018-03-14T06:44:30.761Z,5.80
2018-03-14T06:46:58.978Z,5.70
2018-03-14T06:49:26.455Z,5.70
2018-03-14T06:51:53.922Z,5.70
2018-03-14T06:54:21.388Z,5.80
2018-03-14T06:56:48.854Z,5.90
2018-03-14T06:59:28.267Z,6.10
2018-03-14T07:02:08.107Z,6.10
2018-03-14T07:04:42.822Z,6.20
2018-03-14T07:07:10.316Z,6.20
2018-03-14T07:09:37.770Z,6.30
2018-03-14T07:12:05.223Z,6.40
2018-03-14T07:14:32.751Z,6.50
2018-03-14T07:17:00.987Z,6.60
2018-03-14T07:19:28.446Z,6.50
2018-03-14T07:21:55.925Z,6.60
2018-03-14T07:24:23.379Z,6.70
2018-03-14T07:26:50.871Z,6.70
2018-03-14T07:29:18.665Z,6.70
2018-03-14T07:31:46.114Z,6.70
2018-03-14T07:34:13.571Z,6.80
2018-03-14T07:36:41.048Z,6.90
2018-03-14T07:39:08.508Z,6.90
2018-03-14T07:41:36.003Z,6.90
2018-03-14T07:44:03.477Z,6.90
2018-03-14T07:46:31.047Z,6.90
2018-03-14T07:48:58.506Z,6.90
2018-03-14T07:51:26.088Z,7.00
2018-03-14T07:53:53.606Z,7.00
2018-03-14T07:56:21.056Z,7.00
2018-03-14T07:58:49.323Z,7.00
2018-03-14T08:01:16.796Z,6.90
2018-03-14T08:03:44.256Z,7.00
2018-03-14T08:06:11.774Z,7.20
2018-03-14T08:08:39.993Z,7.90
2018-03-14T08:11:07.443Z,7.90
2018-03-14T08:13:35.063Z,8.00
2018-03-14T08:16:02.415Z,8.10
2018-03-14T08:18:29.871Z,8.10
2018-03-14T08:20:57.346Z,8.20
2018-03-14T08:23:24.803Z,8.20
2018-03-14T08:25:52.268Z,8.30
2018-03-14T08:28:19.767Z,8.40
2018-03-14T08:30:47.223Z,8.40
2018-03-14T08:33:14.707Z,8.50
2018-03-14T08:35:42.274Z,8.40
2018-03-14T08:38:09.751Z,8.40
2018-03-14T08:40:37.232Z,8.40
2018-03-14T08:43:04.686Z,8.50
2018-03-14T08:45:32.138Z,8.60
2018-03-14T08:47:59.615Z,8.80
2018-03-14T08:50:27.080Z,8.90
2018-03-14T08:52:54.571Z,8.90
2018-03-14T08:55:22.025Z,9.20
2018-03-14T08:57:49.478Z,9.90
2018-03-14T09:00:16.948Z,9.80
2018-03-14T09:02:44.443Z,9.50
2018-03-14T09:05:11.910Z,9.30
2018-03-14T09:07:39.389Z,9.30
2018-03-14T09:10:06.855Z,9.30
2018-03-14T09:12:34.331Z,9.40
2018-03-14T09:15:01.791Z,9.30
2018-03-14T09:17:29.247Z,9.30
2018-03-14T09:19:56.731Z,9.30
2018-03-14T09:22:24.207Z,9.20
2018-03-14T09:24:51.657Z,9.30
2018-03-14T09:27:19.123Z,9.20
2018-03-14T09:29:46.580Z,9.40
2018-03-14T09:32:14.068Z,10.30
2018-03-14T09:34:41.523Z,11.40
2018-03-14T09:37:09.024Z,12.20
2018-03-14T09:39:36.550Z,12.80
2018-03-14T09:42:04.063Z,13.50
2018-03-14T09:44:31.639Z,14.30
2018-03-14T09:46:59.119Z,14.80
2018-03-14T09:49:26.589Z,15.10
2018-03-14T09:51:54.063Z,15.50
2018-03-14T09:54:21.518Z,16.20
2018-03-14T09:56:49.043Z,17.00
2018-03-14T09:59:16.614Z,17.40
2018-03-14T10:01:44.072Z,17.20
2018-03-14T10:04:12.306Z,17.70
2018-03-14T10:06:39.770Z,17.60
2018-03-14T10:09:07.448Z,17.80
2018-03-14T10:11:34.880Z,18.20
2018-03-14T10:14:02.388Z,18.40
2018-03-14T10:16:30.699Z,18.20
2018-03-14T10:18:58.321Z,18.20
2018-03-14T10:21:25.799Z,18.00
2018-03-14T10:23:53.360Z,17.90
2018-03-14T10:26:20.879Z,17.90
2018-03-14T10:28:48.412Z,18.20
2018-03-14T10:31:15.919Z,18.50
2018-03-14T10:33:43.560Z,18.80
2018-03-14T10:36:11.119Z,19.30
2018-03-14T10:38:38.640Z,19.50
2018-03-14T10:41:06.266Z,19.60
2018-03-14T10:43:33.690Z,19.80
2018-03-14T10:46:01.247Z,20.10
2018-03-14T10:48:28.719Z,19.40
2018-03-14T10:50:56.194Z,19.40
2018-03-14T10:53:23.666Z,19.50
2018-03-14T10:55:51.244Z,19.10
2018-03-14T10:58:18.808Z,19.60
2018-03-14T11:00:52.081Z,20.00
2018-03-14T11:03:19.559Z,20.40
2018-03-14T11:05:47.027Z,20.20
2018-03-14T11:08:14.492Z,19.90
2018-03-14T11:10:41.992Z,20.10
2018-03-14T11:13:09.559Z,20.30
2018-03-14T11:15:37.114Z,20.40
2018-03-14T11:18:04.662Z,20.90
2018-03-14T11:20:32.079Z,20.80
2018-03-14T11:22:59.600Z,20.70
2018-03-14T11:25:27.055Z,20.30
2018-03-14T11:27:55.304Z,20.60
2018-03-14T11:30:22.780Z,20.60
2018-03-14T11:32:50.251Z,20.70
2018-03-14T11:35:18.023Z,20.10
2018-03-14T11:37:45.491Z,19.10
2018-03-14T11:40:12.965Z,19.00
2018-03-14T11:42:40.440Z,19.40
2018-03-14T11:45:08.011Z,19.90
2018-03-14T11:47:37.066Z,20.30
2018-03-14T11:50:04.534Z,20.30
2018-03-14T11:52:31.986Z,20.50
2018-03-14T11:55:00.231Z,20.70
2018-03-14T11:57:27.697Z,20.60
2018-03-14T11:59:55.175Z,21.30
2018-03-14T12:02:22.644Z,21.30
2018-03-14T12:04:50.116Z,21.30
2018-03-14T12:07:17.588Z,21.30
2018-03-14T12:09:45.043Z,21.10
2018-03-14T12:12:12.537Z,20.90
2018-03-14T12:14:40.007Z,21.40
2018-03-14T12:17:07.567Z,21.30
2018-03-14T12:19:35.142Z,21.20
2018-03-14T12:22:02.628Z,21.40
2018-03-14T12:24:30.928Z,20.60
2018-03-14T12:26:59.245Z,20.90
2018-03-14T12:29:26.824Z,20.90
2018-03-14T12:31:54.283Z,21.50
2018-03-14T12:34:21.738Z,21.70
2018-03-14T12:36:49.991Z,21.00
2018-03-14T12:39:17.550Z,20.90
2018-03-14T12:41:45.003Z,20.90
2018-03-14T12:44:12.480Z,21.50
2018-03-14T12:46:39.943Z,21.70
2018-03-14T12:49:07.415Z,21.90
2018-03-14T12:51:34.872Z,22.10
2018-03-14T12:54:02.424Z,22.40
2018-03-14T12:56:29.955Z,21.80
2018-03-14T12:58:57.432Z,21.90
2018-03-14T13:01:24.895Z,22.50
2018-03-14T13:03:52.383Z,22.40
2018-03-14T13:06:19.838Z,22.80
2018-03-14T13:08:47.412Z,22.90
2018-03-14T13:11:14.874Z,23.00
2018-03-14T13:13:42.369Z,23.30
2018-03-14T13:16:09.839Z,23.40
2018-03-14T13:18:37.294Z,23.50
2018-03-14T13:21:04.895Z,23.40
2018-03-14T13:23:32.443Z,23.40
2018-03-14T13:26:00.151Z,23.50
2018-03-14T13:28:27.687Z,23.40
2018-03-14T13:30:55.143Z,23.50
2018-03-14T13:33:22.608Z,23.80
2018-03-14T13:35:50.084Z,24.00
2018-03-14T13:38:17.539Z,24.20
2018-03-14T13:40:45.027Z,24.00
2018-03-14T13:43:12.483Z,24.10
2018-03-14T13:45:39.955Z,24.00
2018-03-14T13:48:07.439Z,22.30
2018-03-14T13:50:34.949Z,20.60
2018-03-14T13:53:03.223Z,17.50
2018-03-14T13:55:30.679Z,17.40
2018-03-14T13:57:59.635Z,16.60
2018-03-14T14:00:27.107Z,16.60
2018-03-14T14:02:54.571Z,17.20
2018-03-14T14:05:22.043Z,18.00
2018-03-14T14:07:49.511Z,18.30
2018-03-14T14:10:16.970Z,17.70
2018-03-14T14:12:44.435Z,16.80
2018-03-14T14:15:12.657Z,15.50
2018-03-14T14:17:40.206Z,15.40
2018-03-14T14:20:07.719Z,15.10
2018-03-14T14:22:35.194Z,16.00
2018-03-14T14:25:02.720Z,17.20
2018-03-14T14:27:30.144Z,17.50
2018-03-14T14:29:58.419Z,16.60
2018-03-14T14:32:25.879Z,16.60
2018-03-14T14:34:53.336Z,16.10
2018-03-14T14:37:20.811Z,16.00
2018-03-14T14:39:48.267Z,15.90
2018-03-14T14:42:15.768Z,15.90
2018-03-14T14:44:43.243Z,15.90
2018-03-14T14:47:10.699Z,16.20
2018-03-14T14:49:38.180Z,16.60
2018-03-14T14:52:05.636Z,16.60
2018-03-14T14:54:33.115Z,16.30
2018-03-14T14:57:00.576Z,16.20
2018-03-14T14:59:28.033Z,15.90
2018-03-14T15:01:55.495Z,16.10
2018-03-14T15:04:22.948Z,16.00
2018-03-14T15:06:50.423Z,15.90
2018-03-14T15:09:17.895Z,15.60
2018-03-14T15:11:45.460Z,15.40
2018-03-14T15:14:13.033Z,15.20
2018-03-14T15:16:40.484Z,15.10
2018-03-14T15:19:09.059Z,14.60
2018-03-14T15:21:36.524Z,14.50
2018-03-14T15:24:03.971Z,14.30
2018-03-14T15:26:31.452Z,14.00
2018-03-14T15:28:58.999Z,13.70
2018-03-14T15:31:26.463Z,13.60
2018-03-14T15:33:53.922Z,13.60
2018-03-14T15:36:21.435Z,13.40
2018-03-14T15:38:49.002Z,13.30
2018-03-14T15:41:16.460Z,13.40
2018-03-14T15:43:44.196Z,13.40
2018-03-14T15:46:11.656Z,13.30
2018-03-14T15:48:39.966Z,13.30
2018-03-14T15:51:07.428Z,13.20
2018-03-14T15:53:34.906Z,13.20
2018-03-14T15:56:02.425Z,13.10
2018-03-14T15:58:29.880Z,13.00
2018-03-14T16:00:57.397Z,12.90
2018-03-14T16:03:25.622Z,12.70
2018-03-14T16:05:53.119Z,12.70
2018-03-14T16:08:20.603Z,12.70
2018-03-14T16:10:48.160Z,12.60
2018-03-14T16:13:15.615Z,12.60
2018-03-14T16:15:43.087Z,12.50
2018-03-14T16:18:10.627Z,12.50
2018-03-14T16:20:38.145Z,12.40
2018-03-14T16:23:05.616Z,12.30
2018-03-14T16:25:33.063Z,12.30
2018-03-14T16:28:00.560Z,12.30
2018-03-14T16:30:28.027Z,12.30
2018-03-14T16:32:55.498Z,12.20
2018-03-14T16:35:22.955Z,12.10
2018-03-14T16:37:50.406Z,12.10
2018-03-14T16:40:17.887Z,12.10
2018-03-14T16:42:45.345Z,12.00
2018-03-14T16:45:12.843Z,12.10
2018-03-14T16:47:40.300Z,12.00
2018-03-14T16:50:07.760Z,11.90
2018-03-14T16:52:35.240Z,11.80
2018-03-14T16:55:02.717Z,11.70
2018-03-14T16:57:30.191Z,11.70
2018-03-14T16:59:57.649Z,11.60
2018-03-14T17:02:25.102Z,11.60
2018-03-14T17:04:52.576Z,11.50
2018-03-14T17:07:20.047Z,11.40
2018-03-14T17:09:47.539Z,11.40
2018-03-14T17:12:15.007Z,11.30
2018-03-14T17:14:42.755Z,11.20
2018-03-14T17:17:10.211Z,11.10
2018-03-14T17:19:37.671Z,11.00
2018-03-14T17:22:05.903Z,11.00
2018-03-14T17:24:33.395Z,10.90
2018-03-14T17:27:00.885Z,10.90
2018-03-14T17:29:29.200Z,10.70
2018-03-14T17:31:56.652Z,10.70
2018-03-14T17:34:24.138Z,10.70
2018-03-14T17:36:51.651Z,10.60
2018-03-14T17:39:19.124Z,10.60
2018-03-14T17:41:46.692Z,10.50
2018-03-14T17:44:14.148Z,10.40
2018-03-14T17:46:41.691Z,10.30
2018-03-14T17:49:09.171Z,10.20
2018-03-14T17:51:36.837Z,10.20
2018-03-14T17:54:04.351Z,10.10
2018-03-14T17:56:31.928Z,10.00
2018-03-14T17:58:59.402Z,10.00
2018-03-14T18:01:26.859Z,9.90
2018-03-14T18:03:54.328Z,9.80
2018-03-14T18:06:21.802Z,9.70
2018-03-14T18:08:49.257Z,9.60
2018-03-14T18:11:16.727Z,9.50
2018-03-14T18:13:44.181Z,9.40
2018-03-14T18:16:11.683Z,9.40
2018-03-14T18:18:39.161Z,9.40
2018-03-14T18:21:06.677Z,9.30
2018-03-14T18:23:34.891Z,9.30
2018-03-14T18:26:02.381Z,9.20
2018-03-14T18:28:29.841Z,9.20
2018-03-14T18:30:57.378Z,9.20
2018-03-14T18:33:24.879Z,9.20
2018-03-14T18:35:52.332Z,9.20
2018-03-14T18:38:19.786Z,9.10
2018-03-14T18:40:48.123Z,9.00
2018-03-14T18:43:15.579Z,9.00
2018-03-14T18:45:43.032Z,8.90
2018-03-14T18:48:10.504Z,8.90
2018-03-14T18:50:37.957Z,8.90
2018-03-14T18:53:09.538Z,8.90
2018-03-14T18:55:37.005Z,8.90
2018-03-14T18:58:04.459Z,8.90
2018-03-14T19:00:32.796Z,8.80
2018-03-14T19:03:00.251Z,8.80
2018-03-14T19:05:27.707Z,8.80
2018-03-14T19:07:55.177Z,8.80
2018-03-14T19:10:22.619Z,8.80
2018-03-14T19:12:50.859Z,8.90
2018-03-14T19:15:18.336Z,8.90
2018-03-14T19:17:45.807Z,8.90
2018-03-14T19:20:13.270Z,8.80
2018-03-14T19:22:40.794Z,8.80
2018-03-14T19:25:09.080Z,8.70
2018-03-14T19:27:37.328Z,8.70
2018-03-14T19:30:04.801Z,8.70
2018-03-14T19:32:32.263Z,8.70
2018-03-14T19:34:59.720Z,8.60
2018-03-14T19:37:27.200Z,8.50
2018-03-14T19:39:54.669Z,8.50
2018-03-14T19:42:22.155Z,8.50
2018-03-14T19:44:49.622Z,8.40
2018-03-14T19:47:17.070Z,8.40
2018-03-14T19:49:44.559Z,8.40
2018-03-14T19:52:12.040Z,8.40
2018-03-14T19:54:39.492Z,8.40
2018-03-14T19:57:07.274Z,8.30
2018-03-14T19:59:34.747Z,8.20
2018-03-14T20:02:02.225Z,8.20
2018-03-14T20:04:29.738Z,8.20
2018-03-14T20:06:57.199Z,8.20
2018-03-14T20:09:25.461Z,8.10
2018-03-14T20:11:53.013Z,8.10
2018-03-14T20:14:20.482Z,8.10
2018-03-14T20:16:47.939Z,8.10
2018-03-14T20:19:15.404Z,8.00
2018-03-14T20:21:42.895Z,8.00
2018-03-14T20:24:10.352Z,8.20
2018-03-14T20:26:37.800Z,8.20
2018-03-14T20:29:05.281Z,8.10
2018-03-14T20:31:32.751Z,8.10
2018-03-14T20:34:00.246Z,8.00
2018-03-14T20:36:27.699Z,8.00
2018-03-14T20:38:55.191Z,8.00
2018-03-14T20:41:22.656Z,7.90
2018-03-14T20:43:50.115Z,7.90
2018-03-14T20:46:17.591Z,7.90
2018-03-14T20:48:45.167Z,7.90
2018-03-14T20:51:12.630Z,8.00
2018-03-14T20:53:40.113Z,7.90
2018-03-14T20:56:07.651Z,7.90
2018-03-14T20:58:53.398Z,7.80
2018-03-14T21:01:20.906Z,7.80
2018-03-14T21:03:48.466Z,7.70
2018-03-14T21:06:16.777Z,7.60
2018-03-14T21:08:44.305Z,7.60
2018-03-14T21:11:13.315Z,7.50
2018-03-14T21:13:41.626Z,7.50
2018-03-14T21:16:09.882Z,7.50
2018-03-14T21:18:37.753Z,7.50
2018-03-14T21:21:05.264Z,7.50
2018-03-14T21:23:33.568Z,7.40
2018-03-14T21:26:01.068Z,7.40
2018-03-14T21:28:28.616Z,7.40
2018-03-14T21:30:56.095Z,7.30
2018-03-14T21:33:23.555Z,7.30
2018-03-14T21:35:51.031Z,7.30
2018-03-14T21:38:18.491Z,7.30
2018-03-14T21:40:45.969Z,7.30
2018-03-14T21:43:13.742Z,7.20
2018-03-14T21:45:41.205Z,7.30
2018-03-14T21:48:08.659Z,7.20
2018-03-14T21:50:37.184Z,7.20
2018-03-14T21:53:04.692Z,7.20
2018-03-14T21:55:38.194Z,7.10
2018-03-14T21:58:05.783Z,7.10
2018-03-14T22:00:33.341Z,7.10
2018-03-14T22:03:00.827Z,7.00
2018-03-14T22:05:28.319Z,7.10
2018-03-14T22:07:56.567Z,7.00
2018-03-14T22:10:24.048Z,7.00
2018-03-14T22:12:51.504Z,7.00
2018-03-14T22:15:19.062Z,7.00
2018-03-14T22:17:46.494Z,7.00
2018-03-14T22:20:14.700Z,6.90
2018-03-14T22:22:42.152Z,6.90
2018-03-14T22:25:09.632Z,6.90
2018-03-14T22:27:37.087Z,6.90
2018-03-14T22:30:04.547Z,6.90
2018-03-14T22:32:32.779Z,6.80
2018-03-14T22:35:00.271Z,6.80
2018-03-14T22:37:27.725Z,6.80
2018-03-14T22:39:55.210Z,6.80
2018-03-14T22:42:22.680Z,6.80
2018-03-14T22:44:50.147Z,6.80
2018-03-14T22:47:17.607Z,6.70
2018-03-14T22:49:45.066Z,6.70
2018-03-14T22:52:12.603Z,6.70
2018-03-14T22:54:40.840Z,6.70
2018-03-14T22:57:08.301Z,6.60
2018-03-14T22:59:35.772Z,6.60
2018-03-14T23:02:03.234Z,6.70
2018-03-14T23:04:30.707Z,6.60
2018-03-14T23:06:58.176Z,6.60
2018-03-14T23:09:25.627Z,6.60
2018-03-14T23:11:53.219Z,6.60
2018-03-14T23:14:20.684Z,6.60
2018-03-14T23:16:48.159Z,6.60
2018-03-14T23:19:15.623Z,6.60
2018-03-14T23:21:43.081Z,6.50
2018-03-14T23:24:10.554Z,6.50
2018-03-14T23:26:38.113Z,6.40
2018-03-14T23:29:06.347Z,6.40
2018-03-14T23:31:33.803Z,6.40
2018-03-14T23:34:01.342Z,6.40
2018-03-14T23:36:28.807Z,6.40
2018-03-14T23:38:56.267Z,6.40
2018-03-14T23:41:24.522Z,6.40
2018-03-14T23:43:51.990Z,6.30
2018-03-14T23:46:19.555Z,6.30
2018-03-14T23:48:47.026Z,6.30
2018-03-14T23:51:14.487Z,6.30
2018-03-14T23:53:41.967Z,6.30
2018-03-14T23:56:09.419Z,6.30
2018-03-14T23:58:36.875Z,6.30
